Time;durP1;ratioP1;P1;durP2;ratioP2;P2;SDS_P1;SDS_P2;PMS_P1;PMS_P2;Temp;Humidity;BMP_temperature;BMP_pressure;BME280_temperature;BME280_humidity;BME280_pressure;Samples;Min_cycle;Max_cycle;Signal;HPM_P1;HPM_P2
2023/07/28 00:00:45;;;;;;;;;;;22.50;43.50;;;;;;5043030;28;87124;-47
2023/07/28 00:03:10;;;;;;;;;;;22.50;43.40;;;;;;5042535;28;88058;-45
2023/07/28 00:05:36;;;;;;;;;;;22.50;43.50;;;;;;5042387;28;89156;-50
2023/07/28 00:08:02;;;;;;;;;;;22.50;43.40;;;;;;5041825;27;87172;-46
2023/07/28 00:10:27;;;;;;;;;;;22.50;43.50;;;;;;5043029;28;87529;-48
2023/07/28 00:12:52;;;;;;;;;;;22.50;43.50;;;;;;5042584;28;88003;-45
2023/07/28 00:15:18;;;;;;;;;;;22.50;43.50;;;;;;5043013;28;87452;-49
2023/07/28 00:17:44;;;;;;;;;;;22.50;43.50;;;;;;5045149;28;88108;-48
2023/07/28 00:20:10;;;;;;;;;;;22.50;43.50;;;;;;5042540;28;86411;-50
2023/07/28 00:22:35;;;;;;;;;;;22.40;43.50;;;;;;5042792;28;87068;-48
2023/07/28 00:25:01;;;;;;;;;;;22.40;43.50;;;;;;5041752;28;88196;-44
2023/07/28 00:27:26;;;;;;;;;;;22.40;43.60;;;;;;5041975;28;88140;-50
2023/07/28 00:29:52;;;;;;;;;;;22.40;43.60;;;;;;5042717;28;88552;-49
2023/07/28 00:32:17;;;;;;;;;;;22.40;43.50;;;;;;5042248;28;88279;-49
2023/07/28 00:34:43;;;;;;;;;;;22.30;43.50;;;;;;5042562;28;87131;-48
2023/07/28 00:37:08;;;;;;;;;;;22.30;43.60;;;;;;5045182;28;87396;-51
2023/07/28 00:39:34;;;;;;;;;;;22.30;43.60;;;;;;5041068;28;87140;-48
2023/07/28 00:41:59;;;;;;;;;;;22.30;43.60;;;;;;5042610;28;87433;-50
2023/07/28 00:44:25;;;;;;;;;;;22.30;43.60;;;;;;5042509;28;87929;-46
2023/07/28 00:46:50;;;;;;;;;;;22.30;43.60;;;;;;5042494;28;87176;-48
2023/07/28 00:49:16;;;;;;;;;;;22.30;43.70;;;;;;5042095;28;88621;-45
2023/07/28 00:51:42;;;;;;;;;;;22.20;43.60;;;;;;5041341;28;88970;-49
2023/07/28 00:54:07;;;;;;;;;;;22.20;43.60;;;;;;5040646;28;87116;-45
2023/07/28 00:56:33;;;;;;;;;;;22.20;43.70;;;;;;5042484;28;87946;-48
2023/07/28 00:58:58;;;;;;;;;;;22.20;43.70;;;;;;5044502;28;88475;-48
2023/07/28 01:01:24;;;;;;;;;;;22.20;43.80;;;;;;5042298;28;86992;-47
2023/07/28 01:03:50;;;;;;;;;;;22.10;43.70;;;;;;5041978;28;88171;-49
2023/07/28 01:06:36;;;;;;;;;;;22.10;43.70;;;;;;5042199;28;87086;-46
2023/07/28 01:09:05;;;;;;;;;;;22.10;43.70;;;;;;5040202;28;87463;-46
2023/07/28 01:11:31;;;;;;;;;;;22.10;43.70;;;;;;5041651;28;87077;-46
2023/07/28 01:13:57;;;;;;;;;;;22.10;43.70;;;;;;5042262;28;87339;-47
2023/07/28 01:16:23;;;;;;;;;;;22.10;43.70;;;;;;5041505;28;87886;-48
2023/07/28 01:18:49;;;;;;;;;;;22.10;43.80;;;;;;5041909;27;88193;-47
2023/07/28 01:21:19;;;;;;;;;;;22.00;43.70;;;;;;5048611;28;87174;-43
2023/07/28 01:24:04;;;;;;;;;;;22.00;43.80;;;;;;5043873;28;87937;-49
2023/07/28 01:26:32;;;;;;;;;;;22.00;43.80;;;;;;5041527;28;87198;-45
2023/07/28 01:28:59;;;;;;;;;;;22.00;43.80;;;;;;5045585;28;88373;-47
2023/07/28 01:31:25;;;;;;;;;;;21.90;43.80;;;;;;5045095;28;88112;-47
2023/07/28 01:33:50;;;;;;;;;;;21.90;43.80;;;;;;5045762;28;86581;-47
2023/07/28 01:36:16;;;;;;;;;;;21.90;43.90;;;;;;5045543;28;87089;-47
2023/07/28 01:38:41;;;;;;;;;;;21.90;43.80;;;;;;5043927;28;89383;-46
2023/07/28 01:41:07;;;;;;;;;;;21.90;43.90;;;;;;5041064;28;88131;-48
2023/07/28 01:43:32;;;;;;;;;;;21.80;43.90;;;;;;5047904;28;88356;-47
2023/07/28 01:45:58;;;;;;;;;;;21.90;43.90;;;;;;5045376;28;87100;-44
2023/07/28 01:48:23;;;;;;;;;;;21.80;43.80;;;;;;5044834;28;87605;-45
2023/07/28 01:50:49;;;;;;;;;;;21.80;44.50;;;;;;5044781;28;88173;-45
2023/07/28 01:53:14;;;;;;;;;;;21.80;43.90;;;;;;5045428;28;88180;-44
2023/07/28 01:55:40;;;;;;;;;;;21.80;43.90;;;;;;5043631;28;87496;-46
2023/07/28 01:58:05;;;;;;;;;;;21.80;43.90;;;;;;5045108;28;88845;-43
2023/07/28 02:00:31;;;;;;;;;;;21.80;43.90;;;;;;5045066;28;87129;-44
2023/07/28 02:02:58;;;;;;;;;;;21.80;43.90;;;;;;5044960;28;87558;-44
2023/07/28 02:05:23;;;;;;;;;;;21.70;43.80;;;;;;5045377;28;91570;-45
2023/07/28 02:07:49;;;;;;;;;;;21.70;43.80;;;;;;5044993;28;88316;-45
2023/07/28 02:10:14;;;;;;;;;;;21.70;43.90;;;;;;5043348;28;87627;-45
2023/07/28 02:12:40;;;;;;;;;;;21.70;43.90;;;;;;5044903;28;87061;-43
2023/07/28 02:15:06;;;;;;;;;;;21.70;43.90;;;;;;5044840;28;87669;-43
2023/07/28 02:17:31;;;;;;;;;;;21.70;43.90;;;;;;5044051;28;89365;-44
2023/07/28 02:19:57;;;;;;;;;;;21.70;44.00;;;;;;5044359;28;87202;-45
2023/07/28 02:22:22;;;;;;;;;;;21.60;43.80;;;;;;5045284;28;87472;-45
2023/07/28 02:24:48;;;;;;;;;;;21.70;43.90;;;;;;5043681;28;88037;-44
2023/07/28 02:27:13;;;;;;;;;;;21.60;44.50;;;;;;5047203;28;87052;-44
2023/07/28 02:29:39;;;;;;;;;;;21.60;43.80;;;;;;5043373;27;89266;-44
2023/07/28 02:32:05;;;;;;;;;;;21.60;43.90;;;;;;5044474;28;87185;-46
2023/07/28 02:34:30;;;;;;;;;;;21.60;43.90;;;;;;5044255;28;87295;-48
2023/07/28 02:36:55;;;;;;;;;;;21.60;44.00;;;;;;5044300;28;88216;-46
2023/07/28 02:39:21;;;;;;;;;;;21.60;43.90;;;;;;5043807;28;87090;-47
2023/07/28 02:41:46;;;;;;;;;;;21.50;43.90;;;;;;5044481;27;87390;-45
2023/07/28 02:44:12;;;;;;;;;;;21.60;43.90;;;;;;5044204;28;88033;-44
2023/07/28 02:46:37;;;;;;;;;;;21.50;43.80;;;;;;5047880;28;86472;-47
2023/07/28 02:49:03;;;;;;;;;;;21.50;43.90;;;;;;5043816;28;87985;-43
2023/07/28 02:51:29;;;;;;;;;;;21.50;43.90;;;;;;5043999;28;87232;-49
2023/07/28 02:53:55;;;;;;;;;;;21.50;43.90;;;;;;5043621;28;87862;-46
2023/07/28 02:56:21;;;;;;;;;;;21.50;43.90;;;;;;5042219;28;87843;-45
2023/07/28 02:58:48;;;;;;;;;;;21.40;43.80;;;;;;5043702;28;87183;-44
2023/07/28 03:01:13;;;;;;;;;;;21.40;43.90;;;;;;5044296;28;86953;-47
2023/07/28 03:03:39;;;;;;;;;;;21.40;43.90;;;;;;5043738;28;88086;-44
2023/07/28 03:06:04;;;;;;;;;;;21.40;43.90;;;;;;5044179;28;87245;-44
2023/07/28 03:08:30;;;;;;;;;;;21.40;43.90;;;;;;5046187;28;88770;-45
2023/07/28 03:10:57;;;;;;;;;;;21.40;43.90;;;;;;5043925;28;86327;-44
2023/07/28 03:13:22;;;;;;;;;;;21.30;43.90;;;;;;5043787;27;88159;-48
2023/07/28 03:15:48;;;;;;;;;;;21.30;43.90;;;;;;5043705;28;88019;-45
2023/07/28 03:18:13;;;;;;;;;;;21.30;43.90;;;;;;5043240;28;87951;-45
2023/07/28 03:20:39;;;;;;;;;;;21.30;43.90;;;;;;5043565;28;88357;-48
2023/07/28 03:23:04;;;;;;;;;;;21.20;43.90;;;;;;5043381;28;89336;-44
2023/07/28 03:25:29;;;;;;;;;;;21.20;43.90;;;;;;5042233;28;87115;-44
2023/07/28 03:27:55;;;;;;;;;;;21.20;43.90;;;;;;5043815;28;87303;-46
2023/07/28 03:30:20;;;;;;;;;;;21.20;43.90;;;;;;5046141;28;88190;-45
2023/07/28 03:32:46;;;;;;;;;;;21.20;43.90;;;;;;5043672;28;87383;-45
2023/07/28 03:35:12;;;;;;;;;;;21.20;44.00;;;;;;5043771;28;86457;-46
2023/07/28 03:37:37;;;;;;;;;;;21.20;44.00;;;;;;5043554;28;87164;-50
2023/07/28 03:40:03;;;;;;;;;;;21.20;44.00;;;;;;5042817;28;87613;-46
2023/07/28 03:42:29;;;;;;;;;;;21.10;44.00;;;;;;5041737;28;89150;-43
2023/07/28 03:44:54;;;;;;;;;;;21.10;44.00;;;;;;5043318;28;87113;-44
2023/07/28 03:47:20;;;;;;;;;;;21.10;44.00;;;;;;5043357;28;87786;-47
2023/07/28 03:49:45;;;;;;;;;;;21.10;44.10;;;;;;5042981;28;88088;-45
2023/07/28 03:52:10;;;;;;;;;;;21.10;44.10;;;;;;5046138;28;87155;-45
2023/07/28 03:54:36;;;;;;;;;;;21.00;44.00;;;;;;5042113;28;87808;-47
2023/07/28 03:57:01;;;;;;;;;;;21.00;44.00;;;;;;5042836;28;87263;-44
2023/07/28 03:59:27;;;;;;;;;;;21.00;44.10;;;;;;5043954;28;86578;-49
2023/07/28 04:01:52;;;;;;;;;;;21.00;44.10;;;;;;5042656;28;88693;-45
2023/07/28 04:04:18;;;;;;;;;;;21.00;44.10;;;;;;5043034;28;87144;-48
2023/07/28 04:06:50;;;;;;;;;;;21.00;44.20;;;;;;5042625;28;88680;-47
2023/07/28 04:09:16;;;;;;;;;;;20.90;44.10;;;;;;5042601;28;88074;-46
2023/07/28 04:11:41;;;;;;;;;;;20.90;44.10;;;;;;5041128;28;87723;-45
2023/07/28 04:14:07;;;;;;;;;;;20.90;44.10;;;;;;5045572;28;87858;-46
2023/07/28 04:16:33;;;;;;;;;;;20.90;44.10;;;;;;5042953;28;87231;-46
2023/07/28 04:18:58;;;;;;;;;;;20.90;44.20;;;;;;5042087;28;89511;-47
2023/07/28 04:21:24;;;;;;;;;;;20.90;44.20;;;;;;5042507;28;87965;-46
2023/07/28 04:23:49;;;;;;;;;;;20.90;44.20;;;;;;5043335;27;86443;-48
2023/07/28 04:26:16;;;;;;;;;;;20.80;44.20;;;;;;5042069;28;87013;-47
2023/07/28 04:28:41;;;;;;;;;;;20.80;44.20;;;;;;5038073;28;87971;-48
2023/07/28 04:31:07;;;;;;;;;;;20.80;44.20;;;;;;5041914;28;88116;-46
2023/07/28 04:33:32;;;;;;;;;;;20.80;44.20;;;;;;5045069;28;88531;-45
2023/07/28 04:35:58;;;;;;;;;;;20.80;44.20;;;;;;5042538;28;87646;-48
2023/07/28 04:38:23;;;;;;;;;;;20.80;44.30;;;;;;5042536;28;87479;-45
2023/07/28 04:40:49;;;;;;;;;;;20.80;44.30;;;;;;5040549;28;88081;-47
2023/07/28 04:43:14;;;;;;;;;;;20.70;44.30;;;;;;5042682;28;87436;-50
2023/07/28 04:45:40;;;;;;;;;;;20.70;44.30;;;;;;5042523;28;87416;-49
2023/07/28 04:48:05;;;;;;;;;;;20.70;44.30;;;;;;5042589;28;87284;-52
2023/07/28 04:50:33;;;;;;;;;;;20.70;44.30;;;;;;5042454;28;86942;-43
2023/07/28 04:52:59;;;;;;;;;;;20.70;44.30;;;;;;5036495;28;90694;-45
2023/07/28 04:55:26;;;;;;;;;;;20.70;44.30;;;;;;5042998;28;89494;-46
2023/07/28 04:57:52;;;;;;;;;;;20.70;44.40;;;;;;5042017;28;89965;-43
2023/07/28 05:00:18;;;;;;;;;;;20.70;44.40;;;;;;5041682;28;87405;-47
2023/07/28 05:02:43;;;;;;;;;;;20.70;44.40;;;;;;5042236;28;87098;-43
2023/07/28 05:05:09;;;;;;;;;;;20.60;44.40;;;;;;5042084;28;88152;-47
2023/07/28 05:07:34;;;;;;;;;;;20.60;44.50;;;;;;5041819;28;87998;-48
2023/07/28 05:09:59;;;;;;;;;;;20.60;44.60;;;;;;5042147;28;87010;-47
2023/07/28 05:12:25;;;;;;;;;;;20.60;44.60;;;;;;5040921;28;87419;-44
2023/07/28 05:14:50;;;;;;;;;;;20.60;44.60;;;;;;5041798;28;88017;-45
2023/07/28 05:17:16;;;;;;;;;;;20.60;44.70;;;;;;5045010;28;87178;-47
2023/07/28 05:19:41;;;;;;;;;;;20.60;44.70;;;;;;5040672;28;89907;-43
2023/07/28 05:22:07;;;;;;;;;;;20.60;44.60;;;;;;5042109;28;87183;-46
2023/07/28 05:24:33;;;;;;;;;;;20.60;44.80;;;;;;5041929;28;88697;-46
2023/07/28 05:26:58;;;;;;;;;;;20.60;44.80;;;;;;5040771;28;88245;-44
2023/07/28 05:29:24;;;;;;;;;;;20.60;44.80;;;;;;5041918;28;87148;-44
2023/07/28 05:31:50;;;;;;;;;;;20.60;44.80;;;;;;5042045;28;87455;-44
2023/07/28 05:34:15;;;;;;;;;;;20.60;44.90;;;;;;5041512;28;87920;-44
2023/07/28 05:36:41;;;;;;;;;;;20.60;44.90;;;;;;5042456;28;86403;-45
2023/07/28 05:39:06;;;;;;;;;;;20.60;45.00;;;;;;5044522;28;87072;-43
2023/07/28 05:41:32;;;;;;;;;;;20.50;45.00;;;;;;5040250;28;87136;-46
2023/07/28 05:43:57;;;;;;;;;;;20.60;45.20;;;;;;5041045;28;88852;-46
2023/07/28 05:46:23;;;;;;;;;;;20.50;45.20;;;;;;5041525;28;87737;-45
2023/07/28 05:48:49;;;;;;;;;;;20.50;45.20;;;;;;5041281;28;87142;-48
2023/07/28 05:51:14;;;;;;;;;;;20.50;45.10;;;;;;5041522;28;88876;-44
2023/07/28 05:53:40;;;;;;;;;;;20.50;45.10;;;;;;5041473;28;88134;-45
2023/07/28 05:56:05;;;;;;;;;;;20.50;45.30;;;;;;5040104;28;87376;-44
2023/07/28 05:58:31;;;;;;;;;;;20.50;45.40;;;;;;5041327;28;87396;-46
2023/07/28 06:00:56;;;;;;;;;;;20.50;45.50;;;;;;5044761;28;87284;-46
2023/07/28 06:03:22;;;;;;;;;;;20.50;45.50;;;;;;5041179;28;88041;-45
2023/07/28 06:05:47;;;;;;;;;;;20.50;45.50;;;;;;5043068;27;87379;-48
2023/07/28 06:08:13;;;;;;;;;;;20.50;45.60;;;;;;5044392;28;88407;-46
2023/07/28 06:10:39;;;;;;;;;;;20.50;45.50;;;;;;5044588;28;89624;-46
2023/07/28 06:13:04;;;;;;;;;;;20.50;45.50;;;;;;5044049;28;88303;-44
2023/07/28 06:15:30;;;;;;;;;;;20.40;45.40;;;;;;5044804;28;87267;-44
2023/07/28 06:17:55;;;;;;;;;;;20.50;45.50;;;;;;5044654;28;87962;-44
2023/07/28 06:20:21;;;;;;;;;;;20.50;45.50;;;;;;5044395;28;88009;-46
2023/07/28 06:22:46;;;;;;;;;;;20.50;45.70;;;;;;5047759;28;87143;-46
2023/07/28 06:25:12;;;;;;;;;;;20.40;45.60;;;;;;5044888;28;87334;-47
2023/07/28 06:27:38;;;;;;;;;;;20.50;45.70;;;;;;5043531;28;88520;-46
2023/07/28 06:30:05;;;;;;;;;;;20.40;45.60;;;;;;5044295;28;89166;-50
2023/07/28 06:32:30;;;;;;;;;;;20.40;45.70;;;;;;5043166;28;90538;-47
2023/07/28 06:34:57;;;;;;;;;;;20.40;45.70;;;;;;5040325;28;87148;-47
2023/07/28 06:37:23;;;;;;;;;;;20.40;45.60;;;;;;5044732;28;87549;-51
2023/07/28 06:39:49;;;;;;;;;;;20.50;45.60;;;;;;5043873;28;89226;-51
2023/07/28 06:42:16;;;;;;;;;;;20.40;45.70;;;;;;5046168;28;87116;-47
2023/07/28 06:44:42;;;;;;;;;;;20.50;45.70;;;;;;5044020;28;87972;-43
2023/07/28 06:47:07;;;;;;;;;;;20.50;45.70;;;;;;5044316;27;87101;-47
2023/07/28 06:49:33;;;;;;;;;;;20.50;45.50;;;;;;5044642;28;88782;-46
2023/07/28 06:51:58;;;;;;;;;;;20.40;45.50;;;;;;5044054;28;88092;-45
2023/07/28 06:54:24;;;;;;;;;;;20.50;45.70;;;;;;5044326;27;87030;-46
2023/07/28 06:56:50;;;;;;;;;;;20.50;45.70;;;;;;5042879;28;88051;-45
2023/07/28 06:59:15;;;;;;;;;;;20.50;45.70;;;;;;5043179;28;89679;-45
2023/07/28 07:01:41;;;;;;;;;;;20.50;45.70;;;;;;5044327;28;87147;-46
2023/07/28 07:04:06;;;;;;;;;;;20.40;45.70;;;;;;5046483;28;87482;-48
2023/07/28 07:06:32;;;;;;;;;;;20.50;45.70;;;;;;5044194;28;87143;-47
2023/07/28 07:08:57;;;;;;;;;;;20.40;45.80;;;;;;5044192;28;87972;-44
2023/07/28 07:11:23;;;;;;;;;;;20.40;45.60;;;;;;5043030;28;88470;-45
2023/07/28 07:13:48;;;;;;;;;;;20.50;45.80;;;;;;5044413;28;86308;-44
2023/07/28 07:16:17;;;;;;;;;;;20.50;45.70;;;;;;5043187;27;86859;-47
2023/07/28 07:18:43;;;;;;;;;;;20.40;45.70;;;;;;5042665;28;88116;-47
2023/07/28 07:21:08;;;;;;;;;;;20.40;45.70;;;;;;5042885;27;88048;-43
2023/07/28 07:23:34;;;;;;;;;;;20.40;45.70;;;;;;5043437;28;89083;-46
2023/07/28 07:25:59;;;;;;;;;;;20.40;45.80;;;;;;5044969;28;89879;-45
2023/07/28 07:28:25;;;;;;;;;;;20.40;45.80;;;;;;5043115;28;88565;-45
2023/07/28 07:30:51;;;;;;;;;;;20.40;45.90;;;;;;5043192;28;88008;-45
2023/07/28 07:33:16;;;;;;;;;;;20.40;45.80;;;;;;5043101;28;87320;-46
2023/07/28 07:35:41;;;;;;;;;;;20.40;45.90;;;;;;5043542;28;88174;-44
2023/07/28 07:38:10;;;;;;;;;;;20.40;45.90;;;;;;5043633;28;87502;-49
2023/07/28 07:40:36;;;;;;;;;;;20.40;45.80;;;;;;5043459;28;87128;-46
2023/07/28 07:43:03;;;;;;;;;;;20.40;45.90;;;;;;5042867;28;87103;-51
2023/07/28 07:45:31;;;;;;;;;;;20.40;46.00;;;;;;5042121;28;89842;-49
2023/07/28 07:47:57;;;;;;;;;;;20.40;45.90;;;;;;5046251;27;87155;-51
2023/07/28 07:50:22;;;;;;;;;;;20.40;45.80;;;;;;5042974;28;87566;-46
2023/07/28 07:52:48;;;;;;;;;;;20.40;46.00;;;;;;5043217;28;87232;-49
2023/07/28 07:55:14;;;;;;;;;;;20.40;46.00;;;;;;5043384;28;87557;-49
2023/07/28 07:57:39;;;;;;;;;;;20.40;45.90;;;;;;5041207;28;88179;-48
2023/07/28 08:00:06;;;;;;;;;;;20.40;45.80;;;;;;5043079;28;87051;-54
2023/07/28 08:02:32;;;;;;;;;;;20.40;45.80;;;;;;5043366;28;88257;-53
2023/07/28 08:04:57;;;;;;;;;;;20.40;45.80;;;;;;5042953;28;88132;-49
2023/07/28 08:07:23;;;;;;;;;;;20.40;45.80;;;;;;5043124;28;87154;-44
2023/07/28 08:09:49;;;;;;;;;;;20.40;46.00;;;;;;5045007;28;87954;-46
2023/07/28 08:12:15;;;;;;;;;;;20.40;46.00;;;;;;5042228;28;87191;-45
2023/07/28 08:14:40;;;;;;;;;;;20.40;45.80;;;;;;5042792;28;87444;-47
2023/07/28 08:17:06;;;;;;;;;;;20.40;45.90;;;;;;5042597;28;87992;-49
2023/07/28 08:19:31;;;;;;;;;;;20.40;45.90;;;;;;5042694;28;87073;-47
2023/07/28 08:21:57;;;;;;;;;;;20.50;46.00;;;;;;5042710;28;87423;-54
2023/07/28 08:24:22;;;;;;;;;;;20.40;45.90;;;;;;5042625;28;87423;-50
2023/07/28 08:26:48;;;;;;;;;;;20.50;45.80;;;;;;5042807;28;86368;-50
2023/07/28 08:29:14;;;;;;;;;;;20.50;45.90;;;;;;5041356;28;88227;-49
2023/07/28 08:31:41;;;;;;;;;;;20.50;45.90;;;;;;5045208;28;88075;-50
2023/07/28 08:34:07;;;;;;;;;;;20.50;46.20;;;;;;5041941;28;88005;-53
2023/07/28 08:36:33;;;;;;;;;;;20.50;46.60;;;;;;5042455;28;88078;-47
2023/07/28 08:38:59;;;;;;;;;;;20.50;45.90;;;;;;5042461;28;87124;-45
2023/07/28 08:41:24;;;;;;;;;;;20.50;45.90;;;;;;5042599;28;87013;-48
2023/07/28 08:43:51;;;;;;;;;;;20.50;46.00;;;;;;5041266;28;89345;-45
2023/07/28 08:46:18;;;;;;;;;;;20.50;46.00;;;;;;5042266;28;87646;-46
2023/07/28 08:48:43;;;;;;;;;;;20.50;45.90;;;;;;5042138;28;88834;-48
2023/07/28 08:51:11;;;;;;;;;;;20.50;45.90;;;;;;5045511;28;86598;-46
2023/07/28 08:53:37;;;;;;;;;;;20.50;45.90;;;;;;5042346;28;88248;-43
2023/07/28 08:56:03;;;;;;;;;;;20.50;46.00;;;;;;5041943;28;89083;-46
2023/07/28 08:58:29;;;;;;;;;;;20.50;46.10;;;;;;5039241;28;89847;-45
2023/07/28 09:00:55;;;;;;;;;;;20.50;46.10;;;;;;5042215;28;88332;-45
2023/07/28 09:03:21;;;;;;;;;;;20.50;46.10;;;;;;5041686;28;89711;-43
2023/07/28 09:05:47;;;;;;;;;;;20.50;46.10;;;;;;5042084;28;87147;-45
2023/07/28 09:08:15;;;;;;;;;;;20.50;46.10;;;;;;5041868;28;89071;-47
2023/07/28 09:10:42;;;;;;;;;;;20.50;46.10;;;;;;5041868;28;88009;-47
2023/07/28 09:13:12;;;;;;;;;;;20.50;46.20;;;;;;5043479;28;87098;-44
2023/07/28 09:15:37;;;;;;;;;;;20.60;46.30;;;;;;5041972;28;89027;-45
2023/07/28 09:18:03;;;;;;;;;;;20.50;46.20;;;;;;5039802;28;87111;-44
2023/07/28 09:20:33;;;;;;;;;;;20.60;46.30;;;;;;5040349;28;88014;-45
2023/07/28 09:22:59;;;;;;;;;;;20.60;46.30;;;;;;5041198;28;88814;-44
2023/07/28 09:25:27;;;;;;;;;;;20.60;46.40;;;;;;5041989;28;86973;-47
2023/07/28 09:27:53;;;;;;;;;;;20.60;46.30;;;;;;5040482;28;87308;-43
2023/07/28 09:30:19;;;;;;;;;;;20.60;46.40;;;;;;5041361;28;88292;-46
2023/07/28 09:32:49;;;;;;;;;;;20.60;46.30;;;;;;5041715;28;87142;-46
2023/07/28 09:35:15;;;;;;;;;;;20.70;46.40;;;;;;5044152;28;87909;-47
2023/07/28 09:37:42;;;;;;;;;;;20.70;46.40;;;;;;5040538;28;87193;-47
2023/07/28 09:40:18;;;;;;;;;;;20.70;46.40;;;;;;5039552;28;89052;-48
2023/07/28 09:42:49;;;;;;;;;;;20.70;46.40;;;;;;5041592;28;87825;-47
2023/07/28 09:45:15;;;;;;;;;;;20.70;46.40;;;;;;5045093;28;87043;-48
2023/07/28 09:47:41;;;;;;;;;;;20.70;46.80;;;;;;5044634;28;88071;-48
2023/07/28 09:50:08;;;;;;;;;;;20.70;46.60;;;;;;5045005;27;88160;-47
2023/07/28 09:52:35;;;;;;;;;;;20.70;46.70;;;;;;5044958;28;87089;-46
2023/07/28 09:55:05;;;;;;;;;;;20.70;46.50;;;;;;5045024;28;89294;-47
2023/07/28 09:57:31;;;;;;;;;;;20.80;46.50;;;;;;5047274;28;90770;-45
2023/07/28 09:59:57;;;;;;;;;;;20.80;46.50;;;;;;5043660;28;87408;-45
2023/07/28 10:02:23;;;;;;;;;;;20.80;46.60;;;;;;5040850;28;87990;-48
2023/07/28 10:04:49;;;;;;;;;;;20.80;46.50;;;;;;5045495;28;86354;-46
2023/07/28 10:07:14;;;;;;;;;;;20.80;46.40;;;;;;5044968;28;87037;-44
2023/07/28 10:09:40;;;;;;;;;;;20.90;46.50;;;;;;5044703;28;87187;-45
2023/07/28 10:12:06;;;;;;;;;;;20.90;46.40;;;;;;5044331;27;88024;-49
2023/07/28 10:14:34;;;;;;;;;;;20.90;46.60;;;;;;5042899;28;90208;-47
2023/07/28 10:17:01;;;;;;;;;;;20.90;46.60;;;;;;5044457;28;88014;-47
2023/07/28 10:19:36;;;;;;;;;;;20.90;46.50;;;;;;5047303;28;87319;-46
2023/07/28 10:22:02;;;;;;;;;;;20.90;46.50;;;;;;5044137;28;88027;-45
2023/07/28 10:24:46;;;;;;;;;;;20.90;46.50;;;;;;5044563;28;87121;-47
2023/07/28 10:27:27;;;;;;;;;;;21.00;46.50;;;;;;5041030;28;87332;-46
2023/07/28 10:29:57;;;;;;;;;;;21.00;46.60;;;;;;5043865;28;87384;-47
2023/07/28 10:32:27;;;;;;;;;;;21.00;46.50;;;;;;5044278;28;86985;-47
2023/07/28 10:34:59;;;;;;;;;;;21.00;46.50;;;;;;5044527;28;87451;-46
2023/07/28 10:37:25;;;;;;;;;;;21.00;46.50;;;;;;5043342;27;88973;-47
2023/07/28 10:40:10;;;;;;;;;;;21.00;46.50;;;;;;5044499;28;87133;-44
2023/07/28 10:42:36;;;;;;;;;;;21.00;46.50;;;;;;5043218;28;87758;-49
2023/07/28 10:45:03;;;;;;;;;;;21.10;46.60;;;;;;5042900;28;87000;-45
2023/07/28 10:47:28;;;;;;;;;;;21.10;46.50;;;;;;5042906;28;89837;-49
2023/07/28 10:49:54;;;;;;;;;;;21.10;46.50;;;;;;5043737;28;88137;-48
2023/07/28 10:52:23;;;;;;;;;;;21.10;46.50;;;;;;5044279;27;87189;-44
2023/07/28 10:54:48;;;;;;;;;;;21.10;46.50;;;;;;5042959;28;90612;-43
2023/07/28 10:57:14;;;;;;;;;;;21.20;46.50;;;;;;5043794;28;88132;-48
2023/07/28 10:59:39;;;;;;;;;;;21.20;46.50;;;;;;5042583;28;88208;-45
2023/07/28 11:02:05;;;;;;;;;;;21.20;46.60;;;;;;5046222;28;88004;-43
2023/07/28 11:04:30;;;;;;;;;;;21.20;46.60;;;;;;5044194;27;87601;-46
2023/07/28 11:06:56;;;;;;;;;;;21.30;46.60;;;;;;5044145;28;87382;-45
2023/07/28 11:09:23;;;;;;;;;;;21.30;46.60;;;;;;5042890;27;88018;-47
2023/07/28 11:11:50;;;;;;;;;;;21.30;46.50;;;;;;5043675;28;87112;-44
2023/07/28 11:14:17;;;;;;;;;;;21.30;46.60;;;;;;5042564;28;88998;-47
2023/07/28 11:16:44;;;;;;;;;;;21.40;46.60;;;;;;5043504;28;88568;-46
2023/07/28 11:19:11;;;;;;;;;;;21.40;46.50;;;;;;5043873;28;86417;-49
2023/07/28 11:21:37;;;;;;;;;;;21.40;46.50;;;;;;5040139;28;87022;-43
2023/07/28 11:24:03;;;;;;;;;;;21.40;46.50;;;;;;5046074;28;89322;-47
2023/07/28 11:26:28;;;;;;;;;;;21.50;46.60;;;;;;5043211;28;87973;-46
2023/07/28 11:28:54;;;;;;;;;;;21.50;46.60;;;;;;5042402;28;88071;-51
2023/07/28 11:31:23;;;;;;;;;;;21.50;46.60;;;;;;5043430;28;87144;-46
2023/07/28 11:33:48;;;;;;;;;;;21.50;46.60;;;;;;5043380;27;87391;-48
2023/07/28 11:36:21;;;;;;;;;;;21.50;46.60;;;;;;5043202;28;87248;-45
2023/07/28 11:38:46;;;;;;;;;;;21.50;46.60;;;;;;5043517;28;86989;-46
2023/07/28 11:41:12;;;;;;;;;;;21.60;46.60;;;;;;5043463;28;87057;-47
2023/07/28 11:43:37;;;;;;;;;;;21.60;46.60;;;;;;5042625;28;87686;-47
2023/07/28 11:46:03;;;;;;;;;;;21.60;46.60;;;;;;5046459;28;87560;-45
2023/07/28 11:48:30;;;;;;;;;;;21.70;46.60;;;;;;5042895;28;88431;-48
2023/07/28 11:50:56;;;;;;;;;;;21.70;46.60;;;;;;5042575;28;87984;-48
2023/07/28 11:53:21;;;;;;;;;;;21.70;46.60;;;;;;5043053;28;88724;-47
2023/07/28 11:55:47;;;;;;;;;;;21.70;46.60;;;;;;5042816;28;89559;-44
2023/07/28 11:58:12;;;;;;;;;;;21.70;46.60;;;;;;5043406;28;87249;-48
2023/07/28 12:00:39;;;;;;;;;;;21.80;46.60;;;;;;5042420;28;87344;-47
2023/07/28 12:03:06;;;;;;;;;;;21.80;46.60;;;;;;5041698;27;89443;-46
2023/07/28 12:05:33;;;;;;;;;;;21.80;46.60;;;;;;5043133;28;87105;-44
2023/07/28 12:07:58;;;;;;;;;;;21.80;46.60;;;;;;5045782;28;89124;-48
2023/07/28 12:10:24;;;;;;;;;;;21.90;46.70;;;;;;5043106;28;86899;-51
2023/07/28 12:12:49;;;;;;;;;;;21.90;46.50;;;;;;5043186;28;87221;-48
2023/07/28 12:15:20;;;;;;;;;;;21.90;46.50;;;;;;5041126;28;90301;-51
2023/07/28 12:18:03;;;;;;;;;;;21.90;46.70;;;;;;5042281;28;87124;-49
2023/07/28 12:20:32;;;;;;;;;;;21.90;46.60;;;;;;5042384;28;87371;-53
2023/07/28 12:22:58;;;;;;;;;;;22.00;46.70;;;;;;5042315;28;88095;-47
2023/07/28 12:25:23;;;;;;;;;;;22.00;46.70;;;;;;5042885;27;87248;-51
2023/07/28 12:27:49;;;;;;;;;;;22.00;46.50;;;;;;5043054;28;88179;-49
2023/07/28 12:30:14;;;;;;;;;;;22.00;46.70;;;;;;5043425;28;89631;-48
2023/07/28 12:32:40;;;;;;;;;;;22.00;46.60;;;;;;5043048;28;88997;-51
2023/07/28 12:35:05;;;;;;;;;;;22.10;46.70;;;;;;5042300;28;87819;-50
2023/07/28 12:37:31;;;;;;;;;;;22.10;46.60;;;;;;5042591;28;87144;-49
2023/07/28 12:39:56;;;;;;;;;;;22.10;46.70;;;;;;5042302;28;88000;-51
2023/07/28 12:42:22;;;;;;;;;;;22.10;46.70;;;;;;5042481;28;88151;-46
2023/07/28 12:44:47;;;;;;;;;;;22.20;46.60;;;;;;5041999;28;87185;-45
2023/07/28 12:47:13;;;;;;;;;;;22.20;46.70;;;;;;5040219;28;87655;-42
2023/07/28 12:49:38;;;;;;;;;;;22.20;47.70;;;;;;5041146;28;88616;-51
2023/07/28 12:52:06;;;;;;;;;;;22.60;48.20;;;;;;5045363;28;87053;-52
2023/07/28 12:54:32;;;;;;;;;;;22.80;48.80;;;;;;5039136;28;87859;-46
2023/07/28 12:56:58;;;;;;;;;;;23.00;49.10;;;;;;5042957;28;86357;-45
2023/07/28 12:59:23;;;;;;;;;;;23.10;51.10;;;;;;5040274;28;87037;-61
2023/07/28 13:01:48;;;;;;;;;;;23.10;49.70;;;;;;5042119;28;88193;-51
2023/07/28 13:04:14;;;;;;;;;;;23.30;48.40;;;;;;5041760;28;88076;-47
2023/07/28 13:06:41;;;;;;;;;;;23.30;48.40;;;;;;5042304;28;88851;-51
2023/07/28 13:09:07;;;;;;;;;;;23.20;48.00;;;;;;5041771;28;87241;-53
2023/07/28 13:11:33;;;;;;;;;;;23.20;46.30;;;;;;5045035;28;87106;-50
2023/07/28 13:13:59;;;;;;;;;;;23.30;47.30;;;;;;5037743;27;88538;-53
2023/07/28 13:16:24;;;;;;;;;;;23.40;47.60;;;;;;5043459;28;87222;-58
2023/07/28 13:18:49;;;;;;;;;;;23.60;47.90;;;;;;5045411;28;87719;-52
2023/07/28 13:21:15;;;;;;;;;;;23.70;48.20;;;;;;5046009;28;87460;-54
2023/07/28 13:23:40;;;;;;;;;;;23.70;48.50;;;;;;5045771;28;87105;-49
2023/07/28 13:26:06;;;;;;;;;;;23.70;47.20;;;;;;5045603;28;86964;-48
2023/07/28 13:28:32;;;;;;;;;;;23.90;47.90;;;;;;5044489;28;88903;-59
2023/07/28 13:30:57;;;;;;;;;;;23.80;47.10;;;;;;5044345;28;87152;-51
2023/07/28 13:33:23;;;;;;;;;;;23.90;47.30;;;;;;5048280;28;88323;-52
2023/07/28 13:35:48;;;;;;;;;;;24.00;46.80;;;;;;5045703;28;87481;-58
2023/07/28 13:38:14;;;;;;;;;;;24.00;47.00;;;;;;5045414;28;87522;-49
2023/07/28 13:40:39;;;;;;;;;;;24.00;46.50;;;;;;5045045;28;88127;-50
2023/07/28 13:43:05;;;;;;;;;;;24.10;47.20;;;;;;5045181;28;87716;-46
2023/07/28 13:45:30;;;;;;;;;;;24.10;45.80;;;;;;5041736;28;86487;-45
2023/07/28 13:47:56;;;;;;;;;;;24.00;46.50;;;;;;5044397;28;88061;-49
2023/07/28 13:50:21;;;;;;;;;;;24.00;45.30;;;;;;5044114;28;86958;-43
2023/07/28 13:52:47;;;;;;;;;;;24.00;45.00;;;;;;5040543;28;88088;-50
2023/07/28 13:55:12;;;;;;;;;;;24.10;44.10;;;;;;5042595;27;87656;-49
2023/07/28 13:57:38;;;;;;;;;;;24.10;44.40;;;;;;5042263;28;87510;-49
2023/07/28 14:00:08;;;;;;;;;;;24.20;44.40;;;;;;5041280;28;89454;-54
2023/07/28 14:02:35;;;;;;;;;;;24.30;45.30;;;;;;5041136;28;86992;-61
2023/07/28 14:05:00;;;;;;;;;;;24.20;44.90;;;;;;5044103;28;87590;-58
2023/07/28 14:07:26;;;;;;;;;;;24.30;44.50;;;;;;5040703;28;87695;-51
2023/07/28 14:09:51;;;;;;;;;;;24.30;44.80;;;;;;5044878;28;86459;-54